createdAt,value
2019-02-27T00:00:36.274Z,71.20
2019-02-27T00:03:05.881Z,70.70
2019-02-27T00:05:34.562Z,70.70
2019-02-27T00:08:03.258Z,70.90
2019-02-27T00:10:32.236Z,71.00
2019-02-27T00:13:00.933Z,71.10
2019-02-27T00:15:29.620Z,71.40
2019-02-27T00:17:59.264Z,71.50
2019-02-27T00:20:28.092Z,71.90
2019-02-27T00:22:56.870Z,72.40
2019-02-27T00:25:25.567Z,72.80
2019-02-27T00:27:54.585Z,73.30
2019-02-27T00:30:23.888Z,73.20
2019-02-27T00:32:52.881Z,74.00
2019-02-27T00:35:22.182Z,74.40
2019-02-27T00:37:52.152Z,74.50
2019-02-27T00:40:21.708Z,74.60
2019-02-27T00:42:54.057Z,74.80
2019-02-27T00:45:21.229Z,75.20
2019-02-27T00:47:52.830Z,75.30
2019-02-27T00:50:20.750Z,75.50
2019-02-27T00:52:51.193Z,75.60
2019-02-27T00:55:20.274Z,75.90
2019-02-27T00:57:51.747Z,75.80
2019-02-27T01:00:20.104Z,75.80
2019-02-27T01:02:52.677Z,75.90
2019-02-27T01:05:19.319Z,75.80
2019-02-27T01:07:48.315Z,75.40
2019-02-27T01:10:17.195Z,75.20
2019-02-27T01:12:46.301Z,75.10
2019-02-27T01:15:15.293Z,75.00
2019-02-27T01:17:44.294Z,75.00
2019-02-27T01:20:15.125Z,74.90
2019-02-27T01:22:44.122Z,74.60
2019-02-27T01:25:13.115Z,74.50
2019-02-27T01:27:42.109Z,73.80
2019-02-27T01:30:14.480Z,73.20
2019-02-27T01:32:43.498Z,73.20
2019-02-27T01:35:17.816Z,73.10
2019-02-27T01:37:43.920Z,73.40
2019-02-27T01:40:17.238Z,73.40
2019-02-27T01:42:45.283Z,73.50
2019-02-27T01:45:20.750Z,72.80
2019-02-27T01:47:46.648Z,72.10
2019-02-27T01:50:27.309Z,71.70
2019-02-27T01:52:56.311Z,72.40
2019-02-27T01:55:25.302Z,70.60
2019-02-27T01:57:54.296Z,69.80
2019-02-27T02:00:23.890Z,68.70
2019-02-27T02:02:52.917Z,68.60
2019-02-27T02:05:26.255Z,69.10
2019-02-27T02:07:52.733Z,69.20
2019-02-27T02:10:21.582Z,69.70
2019-02-27T02:12:53.793Z,69.80
2019-02-27T02:15:49.922Z,70.10
2019-02-27T02:18:41.194Z,70.10
2019-02-27T02:21:21.902Z,70.20
2019-02-27T02:23:59.809Z,70.60
2019-02-27T02:26:51.348Z,71.30
2019-02-27T02:29:52.979Z,71.30
2019-02-27T02:32:37.017Z,71.00
2019-02-27T02:35:26.824Z,69.70
2019-02-27T02:38:16.583Z,69.10
2019-02-27T02:40:51.217Z,70.80
2019-02-27T02:43:50.568Z,70.10
2019-02-27T02:49:11.071Z,70.50
2019-02-27T08:26:49.320Z,69.20
2019-02-27T08:29:18.029Z,69.80
2019-02-27T08:31:46.843Z,70.10
2019-02-27T08:34:15.528Z,69.90
2019-02-27T08:36:44.279Z,70.30
2019-02-27T08:39:12.960Z,70.00
2019-02-27T08:41:41.648Z,69.70
2019-02-27T08:44:12.344Z,69.30
2019-02-27T08:46:40.760Z,68.90
2019-02-27T08:49:09.441Z,69.70
2019-02-27T08:51:39.773Z,69.70
2019-02-27T08:54:08.546Z,68.80
2019-02-27T08:56:37.471Z,69.20
2019-02-27T08:59:06.527Z,68.20
2019-02-27T09:01:37.700Z,68.60
2019-02-27T09:04:06.244Z,69.50
2019-02-27T09:06:35.595Z,67.00
2019-02-27T09:09:05.207Z,67.20
2019-02-27T09:11:37.113Z,66.60
2019-02-27T09:14:04.726Z,67.20
2019-02-27T09:16:33.720Z,66.90
2019-02-27T09:19:02.473Z,66.60
2019-02-27T09:21:31.162Z,66.60
2019-02-27T09:24:00.444Z,66.20
2019-02-27T09:26:29.410Z,66.10
2019-02-27T09:28:58.379Z,65.90
2019-02-27T09:31:27.131Z,66.30
2019-02-27T09:33:55.815Z,65.60
2019-02-27T09:36:24.503Z,65.30
2019-02-27T09:38:57.334Z,64.70
2019-02-27T09:41:23.634Z,64.50
2019-02-27T09:43:52.365Z,64.80
2019-02-27T09:46:21.087Z,64.60
2019-02-27T09:48:49.827Z,64.40
2019-02-27T09:51:19.151Z,64.40
2019-02-27T09:53:48.857Z,63.80
2019-02-27T09:56:17.606Z,64.10
2019-02-27T09:58:46.307Z,63.60
2019-02-27T10:01:16.793Z,63.30
2019-02-27T10:03:45.584Z,63.50
2019-02-27T10:06:14.268Z,63.00
2019-02-27T10:08:42.968Z,62.20
2019-02-27T10:11:11.706Z,62.10
2019-02-27T10:13:40.395Z,62.20
2019-02-27T10:16:09.257Z,62.40
2019-02-27T10:18:37.996Z,61.30
2019-02-27T10:21:09.313Z,60.50
2019-02-27T10:23:37.038Z,60.90
2019-02-27T10:26:05.761Z,60.40
2019-02-27T10:28:38.709Z,60.30
2019-02-27T10:31:04.832Z,60.10
2019-02-27T10:33:33.557Z,58.90
2019-02-27T10:36:03.666Z,58.50
2019-02-27T10:38:32.645Z,57.40
2019-02-27T10:41:02.262Z,57.90
2019-02-27T10:43:34.328Z,57.00
2019-02-27T10:46:04.597Z,57.00
2019-02-27T10:48:33.363Z,57.20
2019-02-27T10:51:02.064Z,57.30
2019-02-27T10:53:30.815Z,57.10
2019-02-27T10:55:59.704Z,56.60
2019-02-27T10:58:28.455Z,58.90
2019-02-27T11:01:00.747Z,59.50
2019-02-27T11:03:27.581Z,59.30
2019-02-27T11:05:56.272Z,59.60
2019-02-27T11:08:28.915Z,59.90
2019-02-27T11:10:55.530Z,59.60
2019-02-27T11:13:24.261Z,59.70
2019-02-27T11:15:53.188Z,60.60
2019-02-27T11:18:21.858Z,61.00
2019-02-27T11:20:50.567Z,60.80
2019-02-27T11:23:19.316Z,59.80
2019-02-27T11:25:48.022Z,59.70
2019-02-27T11:28:16.854Z,60.10
2019-02-27T11:30:45.570Z,60.70
2019-02-27T11:33:25.170Z,61.00
2019-02-27T11:35:45.934Z,60.40
2019-02-27T11:38:15.031Z,59.90
2019-02-27T11:40:43.768Z,58.70
2019-02-27T11:43:12.972Z,58.90
2019-02-27T11:45:41.888Z,58.60
2019-02-27T11:48:10.719Z,59.10
2019-02-27T11:50:39.463Z,58.90
2019-02-27T11:53:08.207Z,59.40
2019-02-27T11:55:37.043Z,59.20
2019-02-27T11:58:05.795Z,59.50
2019-02-27T12:00:35.000Z,59.20
2019-02-27T12:03:03.687Z,59.40
2019-02-27T12:05:34.254Z,59.30
2019-02-27T12:08:02.878Z,59.40
2019-02-27T12:10:31.866Z,59.60
2019-02-27T12:13:01.653Z,59.20
2019-02-27T12:15:30.550Z,59.90
2019-02-27T12:18:00.479Z,59.50
2019-02-27T12:20:37.239Z,59.60
2019-02-27T12:23:07.528Z,59.30
2019-02-27T12:25:36.816Z,58.90
2019-02-27T12:28:07.439Z,59.40
2019-02-27T12:30:37.462Z,59.90
2019-02-27T12:33:06.632Z,58.80
2019-02-27T12:35:37.559Z,59.00
2019-02-27T12:38:08.148Z,59.10
2019-02-27T12:40:37.401Z,58.90
2019-02-27T12:43:06.089Z,58.50
2019-02-27T12:45:34.947Z,58.30
2019-02-27T12:48:03.646Z,57.50
2019-02-27T12:50:32.351Z,57.20
2019-02-27T12:53:01.239Z,57.10
2019-02-27T12:55:29.932Z,57.20
2019-02-27T12:57:58.629Z,56.70
2019-02-27T13:00:31.210Z,55.80
2019-02-27T13:02:59.964Z,55.50
2019-02-27T13:05:29.150Z,55.50
2019-02-27T13:07:58.145Z,53.60
2019-02-27T13:10:33.064Z,54.50
2019-02-27T13:12:57.975Z,54.50
2019-02-27T13:15:27.889Z,54.40
2019-02-27T13:17:57.906Z,54.60
2019-02-27T13:20:28.581Z,54.00
2019-02-27T13:22:57.278Z,54.80
2019-02-27T13:25:26.015Z,55.00
2019-02-27T13:27:54.753Z,53.30
2019-02-27T13:30:26.410Z,53.50
2019-02-27T13:32:55.121Z,52.20
2019-02-27T13:35:24.031Z,52.40
2019-02-27T13:37:52.908Z,52.90
2019-02-27T13:40:25.009Z,54.00
2019-02-27T13:42:53.862Z,53.10
2019-02-27T13:45:26.849Z,54.00
2019-02-27T13:47:55.606Z,55.70
2019-02-27T13:50:26.666Z,56.80
2019-02-27T13:52:54.648Z,57.60
2019-02-27T13:55:23.794Z,58.10
2019-02-27T13:57:52.497Z,56.40
2019-02-27T14:00:37.819Z,57.60
2019-02-27T14:03:06.546Z,58.30
2019-02-27T14:05:36.257Z,58.00
2019-02-27T14:08:05.282Z,58.50
2019-02-27T14:10:34.785Z,57.80
2019-02-27T14:13:08.925Z,58.30
2019-02-27T14:15:34.029Z,57.10
2019-02-27T14:18:03.093Z,56.90
2019-02-27T14:20:31.809Z,57.30
2019-02-27T14:23:00.547Z,55.80
2019-02-27T14:25:33.798Z,54.50
2019-02-27T14:28:03.033Z,54.50
2019-02-27T14:30:35.701Z,55.60
2019-02-27T14:33:05.539Z,54.70
2019-02-27T14:35:36.165Z,54.90
2019-02-27T14:38:05.054Z,55.00
2019-02-27T14:40:37.761Z,55.30
2019-02-27T14:43:05.185Z,55.10
2019-02-27T14:45:33.926Z,55.00
2019-02-27T14:48:02.868Z,53.50
2019-02-27T14:50:34.615Z,54.10
2019-02-27T14:53:02.337Z,52.60
2019-02-27T14:55:31.387Z,52.90
2019-02-27T14:58:00.376Z,52.60
2019-02-27T15:00:33.977Z,52.30
2019-02-27T15:03:03.003Z,52.30
2019-02-27T15:05:31.977Z,52.70
2019-02-27T15:08:01.581Z,52.50
2019-02-27T15:10:30.567Z,52.60
2019-02-27T15:12:59.564Z,52.50
2019-02-27T15:15:32.856Z,52.70
2019-02-27T15:18:01.558Z,52.90
2019-02-27T15:20:30.798Z,52.80
2019-02-27T15:22:59.628Z,53.30
2019-02-27T15:25:28.316Z,52.70
2019-02-27T15:27:58.884Z,52.00
2019-02-27T15:30:32.291Z,52.10
2019-02-27T15:33:03.993Z,52.40
2019-02-27T15:35:31.664Z,53.10
2019-02-27T15:38:01.950Z,51.70
2019-02-27T15:40:31.181Z,52.00
2019-02-27T15:42:59.962Z,52.60
2019-02-27T15:45:29.128Z,50.80
2019-02-27T15:47:58.780Z,53.30
2019-02-27T15:50:32.077Z,52.30
2019-02-27T15:53:01.075Z,52.90
2019-02-27T15:55:32.761Z,52.80
2019-02-27T15:58:00.246Z,52.90
2019-02-27T16:00:29.155Z,53.00
2019-02-27T16:02:57.852Z,52.90
2019-02-27T16:05:29.999Z,50.90
2019-02-27T16:07:56.935Z,52.00
2019-02-27T16:10:27.097Z,51.50
2019-02-27T16:12:59.832Z,51.10
2019-02-27T16:15:26.888Z,51.40
2019-02-27T16:17:55.588Z,52.10
2019-02-27T16:20:28.243Z,52.20
2019-02-27T16:22:56.996Z,52.80
2019-02-27T16:25:29.616Z,52.60
2019-02-27T16:27:58.335Z,52.90
2019-02-27T16:30:34.965Z,52.80
2019-02-27T16:33:03.659Z,51.90
2019-02-27T16:35:32.392Z,51.90
2019-02-27T16:38:01.177Z,52.30
2019-02-27T16:40:30.678Z,52.50
2019-02-27T16:42:59.384Z,52.20
2019-02-27T16:45:33.840Z,53.10
2019-02-27T16:48:01.547Z,52.80
2019-02-27T16:50:30.290Z,52.70
2019-02-27T16:52:59.053Z,53.10
2019-02-27T16:55:28.758Z,53.80
2019-02-27T16:57:57.897Z,53.30
2019-02-27T17:00:29.184Z,53.20
2019-02-27T17:02:57.935Z,54.00
2019-02-27T17:05:26.658Z,54.30
2019-02-27T17:08:00.690Z,54.40
2019-02-27T17:10:30.738Z,55.00
2019-02-27T17:12:59.495Z,55.60
2019-02-27T17:15:28.192Z,55.00
2019-02-27T17:17:56.964Z,55.90
2019-02-27T17:20:27.382Z,56.70
2019-02-27T17:22:56.055Z,56.40
2019-02-27T17:25:28.649Z,56.10
2019-02-27T17:27:55.168Z,56.50
2019-02-27T17:30:29.596Z,57.70
2019-02-27T17:32:58.289Z,56.80
2019-02-27T17:35:26.983Z,57.10
2019-02-27T17:37:58.303Z,58.40
2019-02-27T17:40:29.025Z,57.90
2019-02-27T17:42:57.704Z,58.50
2019-02-27T17:45:27.662Z,58.50
2019-02-27T17:47:56.347Z,58.20
2019-02-27T17:50:25.100Z,59.40
2019-02-27T17:52:53.777Z,58.40
2019-02-27T17:55:22.512Z,58.90
2019-02-27T17:57:51.300Z,59.10
2019-02-27T18:00:33.135Z,59.00
2019-02-27T18:03:04.987Z,59.40
2019-02-27T18:05:32.374Z,60.20
2019-02-27T18:08:01.049Z,59.70
2019-02-27T18:10:29.807Z,60.30
2019-02-27T18:12:58.895Z,60.40
2019-02-27T18:15:28.884Z,60.80
2019-02-27T18:17:57.583Z,60.80
2019-02-27T18:20:26.446Z,60.60
2019-02-27T18:22:55.178Z,60.50
2019-02-27T18:25:24.071Z,60.80
2019-02-27T18:27:52.827Z,61.10
2019-02-27T18:30:23.779Z,61.50
2019-02-27T18:32:52.582Z,61.80
2019-02-27T18:35:21.288Z,62.10
2019-02-27T18:37:53.207Z,61.60
2019-02-27T18:40:21.710Z,62.10
2019-02-27T18:42:55.182Z,62.10
2019-02-27T18:45:26.758Z,62.30
2019-02-27T18:47:55.450Z,62.10
2019-02-27T18:50:24.850Z,62.60
2019-02-27T18:52:54.629Z,62.20
2019-02-27T18:55:23.287Z,62.90
2019-02-27T18:57:51.969Z,63.00
2019-02-27T19:00:23.476Z,64.50
2019-02-27T19:02:54.882Z,63.40
2019-02-27T19:05:24.019Z,63.20
2019-02-27T19:07:54.956Z,63.70
2019-02-27T19:10:23.227Z,62.80
2019-02-27T19:12:51.923Z,63.10
2019-02-27T19:15:25.210Z,63.20
2019-02-27T19:17:55.700Z,63.80
2019-02-27T19:20:27.530Z,64.00
2019-02-27T19:22:56.289Z,64.50
2019-02-27T19:25:24.982Z,64.80
2019-02-27T19:27:53.882Z,64.90
2019-02-27T19:30:22.621Z,65.30
2019-02-27T19:32:51.320Z,66.00
2019-02-27T19:35:21.719Z,66.50
2019-02-27T19:37:50.419Z,65.40
2019-02-27T19:40:23.579Z,67.30
2019-02-27T19:42:54.889Z,67.70
2019-02-27T19:45:23.581Z,67.00
2019-02-27T19:47:54.610Z,66.20
2019-02-27T19:50:22.646Z,66.80
2019-02-27T19:52:51.340Z,67.30
2019-02-27T19:55:20.348Z,67.80
2019-02-27T19:57:49.044Z,66.40
2019-02-27T20:00:20.310Z,67.60
2019-02-27T20:02:49.302Z,68.70
2019-02-27T20:05:21.935Z,67.60
2019-02-27T20:07:50.975Z,67.70
2019-02-27T20:10:22.288Z,68.10
2019-02-27T20:12:53.712Z,69.30
2019-02-27T20:15:23.740Z,68.50
2019-02-27T20:17:52.475Z,69.70
2019-02-27T20:20:22.498Z,70.60
2019-02-27T20:22:53.572Z,70.70
2019-02-27T20:25:24.486Z,71.40
2019-02-27T20:27:53.473Z,70.60
2019-02-27T20:30:25.265Z,70.00
2019-02-27T20:32:54.071Z,70.90
2019-02-27T20:35:22.769Z,70.70
2019-02-27T20:37:51.547Z,72.60
2019-02-27T20:40:23.233Z,73.30
2019-02-27T20:42:55.159Z,72.70
2019-02-27T20:45:26.579Z,72.20
2019-02-27T20:48:01.857Z,72.90
2019-02-27T20:50:37.093Z,71.40
2019-02-27T20:53:09.331Z,72.80
2019-02-27T20:55:39.031Z,72.80
2019-02-27T20:58:08.657Z,72.50
2019-02-27T21:00:39.884Z,73.30
2019-02-27T21:03:09.898Z,72.10
2019-02-27T21:05:41.905Z,73.80
2019-02-27T21:08:13.624Z,72.10
2019-02-27T21:10:42.611Z,73.00
2019-02-27T21:13:15.659Z,72.70
2019-02-27T21:15:41.839Z,72.90
2019-02-27T21:18:10.693Z,74.10
2019-02-27T21:20:42.186Z,73.70
2019-02-27T21:23:11.979Z,74.20
2019-02-27T21:25:40.898Z,72.80
2019-02-27T21:28:09.660Z,74.20
2019-02-27T21:30:38.399Z,73.80
2019-02-27T21:33:08.319Z,74.60
2019-02-27T21:35:47.308Z,75.00
2019-02-27T21:38:16.628Z,75.30
2019-02-27T21:40:45.704Z,75.70
2019-02-27T21:43:14.417Z,75.90
2019-02-27T21:45:43.531Z,77.00
2019-02-27T21:48:13.878Z,76.40
2019-02-27T21:50:45.268Z,75.00
2019-02-27T21:53:14.216Z,75.40
2019-02-27T21:55:44.622Z,76.30
2019-02-27T21:58:20.410Z,76.20
2019-02-27T22:00:44.956Z,76.20
2019-02-27T22:03:14.483Z,75.40
2019-02-27T22:05:44.058Z,76.10
2019-02-27T22:08:14.350Z,76.20
2019-02-27T22:10:43.152Z,75.60
2019-02-27T22:13:11.944Z,75.20
2019-02-27T22:15:40.643Z,75.60
2019-02-27T22:18:11.837Z,75.50
2019-02-27T22:20:39.830Z,75.50
2019-02-27T22:23:08.512Z,74.60
2019-02-27T22:25:37.438Z,75.10
2019-02-27T22:28:07.981Z,74.20
2019-02-27T22:30:38.587Z,74.80
2019-02-27T22:33:07.987Z,75.20
2019-02-27T22:35:37.960Z,75.30
2019-02-27T22:38:07.856Z,75.20
2019-02-27T22:40:39.188Z,75.00
2019-02-27T22:43:08.329Z,75.20
2019-02-27T22:45:40.579Z,75.30
2019-02-27T22:48:10.743Z,74.30
2019-02-27T22:50:41.992Z,73.60
2019-02-27T22:53:11.192Z,73.90
2019-02-27T22:55:42.294Z,74.40
2019-02-27T22:58:11.479Z,74.80
2019-02-27T23:00:56.047Z,74.80
2019-02-27T23:03:29.410Z,74.90
2019-02-27T23:05:58.252Z,75.20
2019-02-27T23:08:27.157Z,75.80
2019-02-27T23:10:55.888Z,75.00
2019-02-27T23:13:24.586Z,74.80
2019-02-27T23:15:58.045Z,75.00
2019-02-27T23:18:23.853Z,75.40
2019-02-27T23:20:55.383Z,75.30
2019-02-27T23:23:23.098Z,75.10
2019-02-27T23:25:51.806Z,75.30
2019-02-27T23:28:20.515Z,75.90
2019-02-27T23:30:49.310Z,75.30
2019-02-27T23:33:18.124Z,75.40
2019-02-27T23:35:47.403Z,75.40
2019-02-27T23:38:17.644Z,75.30
2019-02-27T23:40:49.170Z,75.50
2019-02-27T23:43:17.166Z,75.80
2019-02-27T23:45:45.895Z,75.70
2019-02-27T23:48:14.585Z,75.90
2019-02-27T23:50:43.404Z,76.10
2019-02-27T23:53:12.246Z,76.10
2019-02-27T23:55:44.603Z,76.70
2019-02-27T23:58:13.201Z,76.30
